sensor_id;sensor_type;location;lat;lon;timestamp;pressure;altitude;pressure_sealevel;temperature;humidity
17821;BME280;9035;42.554;23.188;2022-07-04T00:01:48;90354.25;;;21.29;61.29
17821;BME280;9035;42.554;23.188;2022-07-04T00:04:16;90347.88;;;21.23;61.54
17821;BME280;9035;42.554;23.188;2022-07-04T00:06:43;90344.09;;;21.17;61.28
17821;BME280;9035;42.554;23.188;2022-07-04T00:09:09;90343.72;;;21.15;61.55
17821;BME280;9035;42.554;23.188;2022-07-04T00:11:36;90342.94;;;21.11;61.75
17821;BME280;9035;42.554;23.188;2022-07-04T00:14:03;90343.72;;;21.08;62.00
17821;BME280;9035;42.554;23.188;2022-07-04T00:16:30;90349.31;;;20.96;62.27
17821;BME280;9035;42.554;23.188;2022-07-04T00:18:57;90344.84;;;21.07;62.07
17821;BME280;9035;42.554;23.188;2022-07-04T00:21:25;90345.56;;;21.04;62.20
17821;BME280;9035;42.554;23.188;2022-07-04T00:23:51;90349.31;;;20.99;62.37
17821;BME280;9035;42.554;23.188;2022-07-04T00:26:18;90347.06;;;21.01;61.92
17821;BME280;9035;42.554;23.188;2022-07-04T00:28:45;90349.72;;;20.95;62.48
17821;BME280;9035;42.554;23.188;2022-07-04T00:31:12;90347.81;;;20.92;62.21
17821;BME280;9035;42.554;23.188;2022-07-04T00:33:39;90340.69;;;21.02;61.98
17821;BME280;9035;42.554;23.188;2022-07-04T00:36:05;90342.94;;;21.04;62.12
17821;BME280;9035;42.554;23.188;2022-07-04T00:38:34;90343.31;;;20.96;62.40
17821;BME280;9035;42.554;23.188;2022-07-04T00:41:00;90334.63;;;20.92;62.56
17821;BME280;9035;42.554;23.188;2022-07-04T00:43:28;90341.41;;;20.96;62.61
17821;BME280;9035;42.554;23.188;2022-07-04T00:45:55;90346.34;;;21.01;62.21
17821;BME280;9035;42.554;23.188;2022-07-04T00:48:21;90342.91;;;20.94;62.37
17821;BME280;9035;42.554;23.188;2022-07-04T00:50:49;90343.31;;;20.92;62.62
17821;BME280;9035;42.554;23.188;2022-07-04T00:53:17;90338.75;;;20.86;62.79
17821;BME280;9035;42.554;23.188;2022-07-04T00:55:46;90348.53;;;20.78;62.84
17821;BME280;9035;42.554;23.188;2022-07-04T00:58:13;90345.91;;;20.82;62.90
17821;BME280;9035;42.554;23.188;2022-07-04T01:00:40;90342.53;;;20.81;63.08
17821;BME280;9035;42.554;23.188;2022-07-04T01:03:07;90342.91;;;20.80;62.71
17821;BME280;9035;42.554;23.188;2022-07-04T01:05:34;90345.47;;;20.73;63.13
17821;BME280;9035;42.554;23.188;2022-07-04T01:08:01;90346.28;;;20.77;63.09
17821;BME280;9035;42.554;23.188;2022-07-04T01:10:28;90339.47;;;20.76;63.16
17821;BME280;9035;42.554;23.188;2022-07-04T01:12:56;90328.91;;;20.72;63.36
17821;BME280;9035;42.554;23.188;2022-07-04T01:15:23;90334.91;;;20.62;63.68
17821;BME280;9035;42.554;23.188;2022-07-04T01:17:50;90338.31;;;20.70;63.23
17821;BME280;9035;42.554;23.188;2022-07-04T01:20:18;90337.94;;;20.68;63.26
17821;BME280;9035;42.554;23.188;2022-07-04T01:22:44;90341.69;;;20.63;63.26
17821;BME280;9035;42.554;23.188;2022-07-04T01:25:11;90340.53;;;20.57;63.51
17821;BME280;9035;42.554;23.188;2022-07-04T01:27:39;90331.53;;;20.65;63.19
17821;BME280;9035;42.554;23.188;2022-07-04T01:30:07;90336.41;;;20.67;63.26
17821;BME280;9035;42.554;23.188;2022-07-04T01:32:34;90330.00;;;20.64;63.25
17821;BME280;9035;42.554;23.188;2022-07-04T01:35:01;90328.88;;;20.62;63.26
17821;BME280;9035;42.554;23.188;2022-07-04T01:37:29;90323.63;;;20.62;63.46
17821;BME280;9035;42.554;23.188;2022-07-04T01:39:56;90319.84;;;20.63;63.55
17821;BME280;9035;42.554;23.188;2022-07-04T01:42:22;90333.34;;;20.51;63.80
17821;BME280;9035;42.554;23.188;2022-07-04T01:44:49;90323.22;;;20.56;63.77
17821;BME280;9035;42.554;23.188;2022-07-04T01:47:16;90328.50;;;20.60;63.59
17821;BME280;9035;42.554;23.188;2022-07-04T01:49:43;90331.88;;;20.57;63.71
17821;BME280;9035;42.554;23.188;2022-07-04T01:52:09;90328.47;;;20.46;63.86
17821;BME280;9035;42.554;23.188;2022-07-04T01:54:37;90329.97;;;20.47;64.09
17821;BME280;9035;42.554;23.188;2022-07-04T01:57:04;90319.03;;;20.45;63.99
17821;BME280;9035;42.554;23.188;2022-07-04T01:59:31;90325.41;;;20.37;64.35
17821;BME280;9035;42.554;23.188;2022-07-04T02:02:16;90326.94;;;20.38;64.31
17821;BME280;9035;42.554;23.188;2022-07-04T02:04:42;90322.03;;;20.40;64.01
17821;BME280;9035;42.554;23.188;2022-07-04T02:07:09;90320.56;;;20.46;63.82
17821;BME280;9035;42.554;23.188;2022-07-04T02:09:37;90317.53;;;20.44;63.90
17821;BME280;9035;42.554;23.188;2022-07-04T02:12:05;90326.13;;;20.30;64.50
17821;BME280;9035;42.554;23.188;2022-07-04T02:14:49;90327.66;;;20.35;64.20
17821;BME280;9035;42.554;23.188;2022-07-04T02:17:15;90332.94;;;20.38;64.11
17821;BME280;9035;42.554;23.188;2022-07-04T02:19:42;90334.06;;;20.34;63.96
17821;BME280;9035;42.554;23.188;2022-07-04T02:22:09;90330.69;;;20.33;63.77
17821;BME280;9035;42.554;23.188;2022-07-04T02:24:37;90338.97;;;20.35;64.09
17821;BME280;9035;42.554;23.188;2022-07-04T02:27:04;90344.25;;;20.35;64.06
17821;BME280;9035;42.554;23.188;2022-07-04T02:29:31;90340.78;;;20.17;64.98
17821;BME280;9035;42.554;23.188;2022-07-04T02:31:58;90336.97;;;20.15;65.48
17821;BME280;9035;42.554;23.188;2022-07-04T02:34:25;90340.38;;;20.12;65.30
17821;BME280;9035;42.554;23.188;2022-07-04T02:36:52;90340.84;;;20.35;64.38
17821;BME280;9035;42.554;23.188;2022-07-04T02:39:19;90333.66;;;20.28;64.45
17821;BME280;9035;42.554;23.188;2022-07-04T02:41:47;90331.38;;;20.23;64.98
17821;BME280;9035;42.554;23.188;2022-07-04T02:44:14;90326.50;;;20.22;64.61
17821;BME280;9035;42.554;23.188;2022-07-04T02:46:41;90333.63;;;20.21;64.67
17821;BME280;9035;42.554;23.188;2022-07-04T02:49:08;90340.78;;;20.21;64.84
17821;BME280;9035;42.554;23.188;2022-07-04T02:51:35;90344.91;;;20.18;65.06
17821;BME280;9035;42.554;23.188;2022-07-04T02:54:01;90337.38;;;20.20;64.70
17821;BME280;9035;42.554;23.188;2022-07-04T02:56:28;90347.56;;;20.25;64.67
17821;BME280;9035;42.554;23.188;2022-07-04T02:58:57;90344.94;;;20.22;64.71
17821;BME280;9035;42.554;23.188;2022-07-04T03:01:24;90347.56;;;20.22;64.86
17821;BME280;9035;42.554;23.188;2022-07-04T03:03:51;90350.91;;;20.16;65.24
17821;BME280;9035;42.554;23.188;2022-07-04T03:06:18;90351.31;;;20.21;65.00
17821;BME280;9035;42.554;23.188;2022-07-04T03:08:45;90349.81;;;20.20;65.24
17821;BME280;9035;42.554;23.188;2022-07-04T03:11:12;90355.47;;;20.22;64.93
17821;BME280;9035;42.554;23.188;2022-07-04T03:13:40;90356.19;;;20.22;64.89
17821;BME280;9035;42.554;23.188;2022-07-04T03:16:08;90361.84;;;20.17;65.02
17821;BME280;9035;42.554;23.188;2022-07-04T03:18:35;90355.41;;;20.15;65.29
17821;BME280;9035;42.554;23.188;2022-07-04T03:21:02;90357.69;;;20.17;65.21
17821;BME280;9035;42.554;23.188;2022-07-04T03:23:30;90367.09;;;20.17;64.71
17821;BME280;9035;42.554;23.188;2022-07-04T03:25:57;90355.81;;;20.20;64.96
17821;BME280;9035;42.554;23.188;2022-07-04T03:28:24;90363.34;;;20.18;64.92
17821;BME280;9035;42.554;23.188;2022-07-04T03:30:50;90362.56;;;20.18;65.41
17821;BME280;9035;42.554;23.188;2022-07-04T03:33:19;90360.34;;;20.20;65.50
17821;BME280;9035;42.554;23.188;2022-07-04T03:35:46;90356.19;;;20.19;65.43
17821;BME280;9035;42.554;23.188;2022-07-04T03:38:13;90359.53;;;20.13;65.23
17821;BME280;9035;42.554;23.188;2022-07-04T03:40:39;90367.50;;;20.23;65.31
17821;BME280;9035;42.554;23.188;2022-07-04T03:43:06;90370.91;;;20.27;65.53
17821;BME280;9035;42.554;23.188;2022-07-04T03:45:33;90369.75;;;20.24;64.88
17821;BME280;9035;42.554;23.188;2022-07-04T03:48:00;90367.16;;;20.31;65.30
17821;BME280;9035;42.554;23.188;2022-07-04T03:50:30;90362.59;;;20.25;65.53
17821;BME280;9035;42.554;23.188;2022-07-04T03:52:56;90371.69;;;20.31;65.34
17821;BME280;9035;42.554;23.188;2022-07-04T03:55:24;90364.50;;;20.24;66.08
17821;BME280;9035;42.554;23.188;2022-07-04T03:57:50;90357.72;;;20.27;66.17
17821;BME280;9035;42.554;23.188;2022-07-04T04:00:17;90360.72;;;20.22;66.21
17821;BME280;9035;42.554;23.188;2022-07-04T04:02:44;90363.72;;;20.20;66.58
17821;BME280;9035;42.554;23.188;2022-07-04T04:05:11;90362.25;;;20.23;66.70
17821;BME280;9035;42.554;23.188;2022-07-04T04:07:54;90362.19;;;20.19;66.91
17821;BME280;9035;42.554;23.188;2022-07-04T04:10:21;90367.13;;;20.21;67.29
17821;BME280;9035;42.554;23.188;2022-07-04T04:12:48;90366.75;;;20.22;67.23
17821;BME280;9035;42.554;23.188;2022-07-04T04:15:16;90361.88;;;20.28;67.16
17821;BME280;9035;42.554;23.188;2022-07-04T04:17:42;90370.16;;;20.23;67.64
17821;BME280;9035;42.554;23.188;2022-07-04T04:20:09;90366.03;;;20.29;67.43
17821;BME280;9035;42.554;23.188;2022-07-04T04:22:36;90370.16;;;20.26;67.92
17821;BME280;9035;42.554;23.188;2022-07-04T04:25:06;90364.91;;;20.30;68.05
17821;BME280;9035;42.554;23.188;2022-07-04T04:27:32;90366.00;;;20.25;68.47
17821;BME280;9035;42.554;23.188;2022-07-04T04:29:59;90365.31;;;20.35;68.53
17821;BME280;9035;42.554;23.188;2022-07-04T04:32:26;90363.41;;;20.36;68.40
17821;BME280;9035;42.554;23.188;2022-07-04T04:34:53;90358.19;;;20.43;68.06
17821;BME280;9035;42.554;23.188;2022-07-04T04:37:20;90354.06;;;20.49;68.11
17821;BME280;9035;42.554;23.188;2022-07-04T04:39:47;90359.69;;;20.47;68.76
17821;BME280;9035;42.554;23.188;2022-07-04T04:42:15;90367.19;;;20.42;69.38
17821;BME280;9035;42.554;23.188;2022-07-04T04:44:42;90366.50;;;20.59;69.44
17821;BME280;9035;42.554;23.188;2022-07-04T04:47:08;90368.00;;;20.53;69.96
17821;BME280;9035;42.554;23.188;2022-07-04T04:49:35;90370.66;;;20.60;70.20
17821;BME280;9035;42.554;23.188;2022-07-04T04:52:02;90350.69;;;20.55;69.53
17821;BME280;9035;42.554;23.188;2022-07-04T04:54:31;90372.25;;;20.82;69.72
17821;BME280;9035;42.554;23.188;2022-07-04T04:56:58;90370.78;;;20.91;69.66
17821;BME280;9035;42.554;23.188;2022-07-04T04:59:27;90371.56;;;21.02;69.39
17821;BME280;9035;42.554;23.188;2022-07-04T05:01:54;90373.84;;;21.10;68.87
17821;BME280;9035;42.554;23.188;2022-07-04T05:04:21;90366.72;;;21.32;68.01
17821;BME280;9035;42.554;23.188;2022-07-04T05:06:48;90375.03;;;21.34;68.58
17821;BME280;9035;42.554;23.188;2022-07-04T05:09:15;90368.22;;;21.47;67.83
17821;BME280;9035;42.554;23.188;2022-07-04T05:11:41;90376.56;;;21.63;67.82
17821;BME280;9035;42.554;23.188;2022-07-04T05:14:08;90372.41;;;21.69;67.73
17821;BME280;9035;42.554;23.188;2022-07-04T05:16:36;90372.03;;;21.67;68.38
17821;BME280;9035;42.554;23.188;2022-07-04T05:19:03;90371.66;;;21.72;68.28
17821;BME280;9035;42.554;23.188;2022-07-04T05:21:30;90375.78;;;21.90;67.85
17821;BME280;9035;42.554;23.188;2022-07-04T05:23:57;90375.75;;;22.00;67.37
17821;BME280;9035;42.554;23.188;2022-07-04T05:26:24;90379.91;;;22.08;68.02
17821;BME280;9035;42.554;23.188;2022-07-04T05:28:51;90382.53;;;22.15;67.25
17821;BME280;9035;42.554;23.188;2022-07-04T05:31:18;90379.13;;;22.22;67.32
17821;BME280;9035;42.554;23.188;2022-07-04T05:33:46;90380.25;;;22.35;67.15
17821;BME280;9035;42.554;23.188;2022-07-04T05:36:12;90385.53;;;22.42;66.15
17821;BME280;9035;42.554;23.188;2022-07-04T05:38:39;90376.41;;;22.53;66.53
17821;BME280;9035;42.554;23.188;2022-07-04T05:41:06;90384.00;;;22.48;66.57
17821;BME280;9035;42.554;23.188;2022-07-04T05:43:34;90378.66;;;22.62;66.85
17821;BME280;9035;42.554;23.188;2022-07-04T05:46:00;90379.38;;;22.72;66.05
17821;BME280;9035;42.554;23.188;2022-07-04T05:48:27;90369.13;;;22.81;64.41
17821;BME280;9035;42.554;23.188;2022-07-04T05:50:55;90380.41;;;22.92;63.08
17821;BME280;9035;42.554;23.188;2022-07-04T05:53:22;90375.91;;;22.86;63.73
17821;BME280;9035;42.554;23.188;2022-07-04T05:55:49;90370.19;;;23.05;63.47
17821;BME280;9035;42.554;23.188;2022-07-04T05:58:16;90375.78;;;23.17;62.72
17821;BME280;9035;42.554;23.188;2022-07-04T06:00:43;90367.16;;;23.06;64.25
17821;BME280;9035;42.554;23.188;2022-07-04T06:03:10;90374.63;;;23.15;63.82
17821;BME280;9035;42.554;23.188;2022-07-04T06:05:36;90370.06;;;23.26;63.90
17821;BME280;9035;42.554;23.188;2022-07-04T06:08:05;90365.81;;;23.39;63.52
17821;BME280;9035;42.554;23.188;2022-07-04T06:10:31;90368.00;;;23.47;63.00
17821;BME280;9035;42.554;23.188;2022-07-04T06:12:59;90367.63;;;23.48;63.30
17821;BME280;9035;42.554;23.188;2022-07-04T06:15:25;90365.41;;;23.44;63.35
17821;BME280;9035;42.554;23.188;2022-07-04T06:17:52;90366.47;;;23.49;64.34
17821;BME280;9035;42.554;23.188;2022-07-04T06:20:19;90361.19;;;23.49;64.72
17821;BME280;9035;42.554;23.188;2022-07-04T06:22:47;90375.47;;;23.62;64.75
17821;BME280;9035;42.554;23.188;2022-07-04T06:25:17;90377.38;;;23.62;65.14
17821;BME280;9035;42.554;23.188;2022-07-04T06:27:46;90370.53;;;23.64;65.64
17821;BME280;9035;42.554;23.188;2022-07-04T06:30:14;90370.19;;;23.62;64.55
17821;BME280;9035;42.554;23.188;2022-07-04T06:32:43;90378.09;;;23.66;64.75
17821;BME280;9035;42.554;23.188;2022-07-04T06:35:10;90373.88;;;23.75;64.06
17821;BME280;9035;42.554;23.188;2022-07-04T06:37:54;90374.91;;;23.92;62.79
17821;BME280;9035;42.554;23.188;2022-07-04T06:40:22;90380.25;;;23.81;62.56
17821;BME280;9035;42.554;23.188;2022-07-04T06:42:50;90379.53;;;23.81;62.77
17821;BME280;9035;42.554;23.188;2022-07-04T06:45:16;90381.03;;;23.82;62.48
17821;BME280;9035;42.554;23.188;2022-07-04T06:47:44;90389.28;;;23.91;61.86
17821;BME280;9035;42.554;23.188;2022-07-04T06:50:11;90376.75;;;23.95;62.03
17821;BME280;9035;42.554;23.188;2022-07-04T06:52:38;90374.84;;;23.99;62.89
17821;BME280;9035;42.554;23.188;2022-07-04T06:55:05;90373.41;;;23.87;62.96
17821;BME280;9035;42.554;23.188;2022-07-04T06:57:34;90372.63;;;23.90;63.84
17821;BME280;9035;42.554;23.188;2022-07-04T07:00:01;90370.38;;;23.89;63.60
17821;BME280;9035;42.554;23.188;2022-07-04T07:02:28;90367.22;;;24.01;64.38
17821;BME280;9035;42.554;23.188;2022-07-04T07:04:55;90366.38;;;24.11;62.98
17821;BME280;9035;42.554;23.188;2022-07-04T07:07:22;90369.06;;;24.07;62.48
17821;BME280;9035;42.554;23.188;2022-07-04T07:09:50;90366.78;;;24.09;63.28
17821;BME280;9035;42.554;23.188;2022-07-04T07:12:16;90361.91;;;24.01;62.12
17821;BME280;9035;42.554;23.188;2022-07-04T07:14:44;90368.25;;;24.14;63.62
17821;BME280;9035;42.554;23.188;2022-07-04T07:17:11;90363.63;;;24.25;62.13
17821;BME280;9035;42.554;23.188;2022-07-04T07:19:38;90367.34;;;24.30;62.54
17821;BME280;9035;42.554;23.188;2022-07-04T07:22:05;90367.34;;;24.30;61.83
17821;BME280;9035;42.554;23.188;2022-07-04T07:24:31;90363.47;;;24.38;61.23
17821;BME280;9035;42.554;23.188;2022-07-04T07:26:58;90354.41;;;24.36;61.23
17821;BME280;9035;42.554;23.188;2022-07-04T07:29:25;90353.91;;;24.48;61.25
17821;BME280;9035;42.554;23.188;2022-07-04T07:31:53;90355.47;;;24.42;60.69
17821;BME280;9035;42.554;23.188;2022-07-04T07:34:20;90359.09;;;24.58;61.04
17821;BME280;9035;42.554;23.188;2022-07-04T07:36:47;90363.72;;;24.51;60.47
17821;BME280;9035;42.554;23.188;2022-07-04T07:39:14;90361.44;;;24.53;60.73
17821;BME280;9035;42.554;23.188;2022-07-04T07:41:41;90366.34;;;24.54;60.46
17821;BME280;9035;42.554;23.188;2022-07-04T07:44:08;90361.56;;;24.39;61.81
17821;BME280;9035;42.554;23.188;2022-07-04T07:46:35;90357.31;;;24.48;61.13
17821;BME280;9035;42.554;23.188;2022-07-04T07:49:03;90362.28;;;24.76;60.71
17821;BME280;9035;42.554;23.188;2022-07-04T07:51:30;90359.66;;;24.76;60.36
17821;BME280;9035;42.554;23.188;2022-07-04T07:53:57;90362.94;;;24.87;59.91
17821;BME280;9035;42.554;23.188;2022-07-04T07:56:24;90363.75;;;24.81;60.03
17821;BME280;9035;42.554;23.188;2022-07-04T07:58:51;90352.31;;;24.57;59.53
17821;BME280;9035;42.554;23.188;2022-07-04T08:01:18;90363.66;;;24.58;60.38
17821;BME280;9035;42.554;23.188;2022-07-04T08:03:46;90356.03;;;24.63;60.33
17821;BME280;9035;42.554;23.188;2022-07-04T08:06:32;90357.63;;;24.87;59.12
17821;BME280;9035;42.554;23.188;2022-07-04T08:08:59;90354.50;;;24.92;59.54
17821;BME280;9035;42.554;23.188;2022-07-04T08:11:27;90357.09;;;24.99;58.80
17821;BME280;9035;42.554;23.188;2022-07-04T08:13:54;90355.09;;;25.07;58.39
17821;BME280;9035;42.554;23.188;2022-07-04T08:16:21;90362.41;;;24.99;58.03
17821;BME280;9035;42.554;23.188;2022-07-04T08:18:48;90358.09;;;25.12;56.99
17821;BME280;9035;42.554;23.188;2022-07-04T08:21:14;90360.84;;;25.02;57.75
17821;BME280;9035;42.554;23.188;2022-07-04T08:23:43;90355.56;;;25.02;57.67
17821;BME280;9035;42.554;23.188;2022-07-04T08:26:10;90346.59;;;25.22;58.24
17821;BME280;9035;42.554;23.188;2022-07-04T08:28:36;90352.91;;;25.02;58.39
17821;BME280;9035;42.554;23.188;2022-07-04T08:31:03;90352.94;;;24.98;59.11
17821;BME280;9035;42.554;23.188;2022-07-04T08:33:31;90349.63;;;25.20;58.88
17821;BME280;9035;42.554;23.188;2022-07-04T08:35:57;90351.31;;;25.34;57.52
17821;BME280;9035;42.554;23.188;2022-07-04T08:38:24;90357.41;;;25.34;56.71
17821;BME280;9035;42.554;23.188;2022-07-04T08:40:56;90349.34;;;25.41;57.51
17821;BME280;9035;42.554;23.188;2022-07-04T08:43:24;90360.38;;;25.40;56.28
17821;BME280;9035;42.554;23.188;2022-07-04T08:45:53;90364.75;;;25.50;55.42
17821;BME280;9035;42.554;23.188;2022-07-04T08:48:23;90358.25;;;25.54;56.77
17821;BME280;9035;42.554;23.188;2022-07-04T08:50:54;90349.00;;;25.62;55.23
17821;BME280;9035;42.554;23.188;2022-07-04T08:53:21;90358.59;;;25.56;53.88
17821;BME280;9035;42.554;23.188;2022-07-04T08:55:53;90359.50;;;25.73;54.17
17821;BME280;9035;42.554;23.188;2022-07-04T08:58:37;90356.28;;;25.85;54.56
17821;BME280;9035;42.554;23.188;2022-07-04T09:01:05;90352.34;;;25.93;55.36
17821;BME280;9035;42.554;23.188;2022-07-04T09:03:32;90358.81;;;26.14;54.08
17821;BME280;9035;42.554;23.188;2022-07-04T09:06:00;90370.03;;;26.25;53.19
17821;BME280;9035;42.554;23.188;2022-07-04T09:08:28;90361.31;;;26.25;51.95
17821;BME280;9035;42.554;23.188;2022-07-04T09:10:56;90365.69;;;26.35;52.34
17821;BME280;9035;42.554;23.188;2022-07-04T09:13:22;90353.81;;;26.43;53.28
17821;BME280;9035;42.554;23.188;2022-07-04T09:15:50;90357.44;;;26.52;52.37
17821;BME280;9035;42.554;23.188;2022-07-04T09:18:22;90355.22;;;26.47;51.94
17821;BME280;9035;42.554;23.188;2022-07-04T09:20:50;90355.28;;;26.44;55.85
17821;BME280;9035;42.554;23.188;2022-07-04T09:23:18;90354.78;;;26.52;54.56
17821;BME280;9035;42.554;23.188;2022-07-04T09:25:46;90354.56;;;26.63;52.52
17821;BME280;9035;42.554;23.188;2022-07-04T09:28:26;90354.84;;;26.68;52.86
17821;BME280;9035;42.554;23.188;2022-07-04T09:30:53;90350.75;;;26.64;50.71
17821;BME280;9035;42.554;23.188;2022-07-04T09:33:20;90354.41;;;26.50;50.01
17821;BME280;9035;42.554;23.188;2022-07-04T09:35:48;90349.50;;;26.49;50.46
17821;BME280;9035;42.554;23.188;2022-07-04T09:38:22;90351.22;;;26.59;50.96
17821;BME280;9035;42.554;23.188;2022-07-04T09:40:52;90342.56;;;26.55;50.30
17821;BME280;9035;42.554;23.188;2022-07-04T09:43:58;90339.00;;;26.80;50.26
17821;BME280;9035;42.554;23.188;2022-07-04T09:46:25;90336.56;;;27.09;50.96
17821;BME280;9035;42.554;23.188;2022-07-04T09:48:52;90340.25;;;27.31;50.38
17821;BME280;9035;42.554;23.188;2022-07-04T09:51:35;90334.31;;;27.43;48.29
17821;BME280;9035;42.554;23.188;2022-07-04T09:54:16;90336.53;;;27.44;48.73
17821;BME280;9035;42.554;23.188;2022-07-04T09:56:44;90350.03;;;27.37;47.95
17821;BME280;9035;42.554;23.188;2022-07-04T09:59:12;90340.88;;;27.54;48.18
17821;BME280;9035;42.554;23.188;2022-07-04T10:01:39;90339.72;;;27.55;49.33
17821;BME280;9035;42.554;23.188;2022-07-04T10:04:06;90338.53;;;27.75;49.54
17821;BME280;9035;42.554;23.188;2022-07-04T10:06:37;90332.19;;;27.85;47.68
17821;BME280;9035;42.554;23.188;2022-07-04T10:09:12;90329.53;;;27.85;47.87
17821;BME280;9035;42.554;23.188;2022-07-04T10:11:40;90331.50;;;27.97;48.84
17821;BME280;9035;42.554;23.188;2022-07-04T10:14:09;90338.00;;;28.12;48.79
17821;BME280;9035;42.554;23.188;2022-07-04T10:16:38;90331.50;;;28.13;48.36
17821;BME280;9035;42.554;23.188;2022-07-04T10:19:06;90337.59;;;28.14;47.12
17821;BME280;9035;42.554;23.188;2022-07-04T10:21:33;90331.72;;;28.50;48.03
17821;BME280;9035;42.554;23.188;2022-07-04T10:24:01;90331.91;;;28.44;46.06
17821;BME280;9035;42.554;23.188;2022-07-04T10:26:29;90332.09;;;28.65;46.99
17821;BME280;9035;42.554;23.188;2022-07-04T10:28:56;90328.59;;;28.68;44.62
17821;BME280;9035;42.554;23.188;2022-07-04T10:31:24;90325.78;;;28.87;47.08
17821;BME280;9035;42.554;23.188;2022-07-04T10:33:54;90321.97;;;29.01;45.31
17821;BME280;9035;42.554;23.188;2022-07-04T10:36:24;90319.47;;;28.94;46.61
17821;BME280;9035;42.554;23.188;2022-07-04T10:38:55;90333.94;;;28.96;44.59
17821;BME280;9035;42.554;23.188;2022-07-04T10:41:24;90330.31;;;29.03;43.71
17821;BME280;9035;42.554;23.188;2022-07-04T10:43:59;90325.50;;;28.98;42.84
17821;BME280;9035;42.554;23.188;2022-07-04T10:46:38;90325.84;;;29.12;44.10
17821;BME280;9035;42.554;23.188;2022-07-04T10:49:19;90324.94;;;29.43;44.19
17821;BME280;9035;42.554;23.188;2022-07-04T10:51:47;90325.69;;;29.69;45.37
17821;BME280;9035;42.554;23.188;2022-07-04T10:54:16;90328.25;;;29.72;44.94
17821;BME280;9035;42.554;23.188;2022-07-04T10:56:49;90334.06;;;29.83;45.66
17821;BME280;9035;42.554;23.188;2022-07-04T10:59:18;90325.91;;;29.87;44.74
17821;BME280;9035;42.554;23.188;2022-07-04T11:01:50;90317.69;;;29.94;44.24
17821;BME280;9035;42.554;23.188;2022-07-04T11:04:45;90312.31;;;30.06;43.01
17821;BME280;9035;42.554;23.188;2022-07-04T11:07:13;90314.38;;;30.36;43.16
17821;BME280;9035;42.554;23.188;2022-07-04T11:09:40;90302.78;;;30.51;44.59
17821;BME280;9035;42.554;23.188;2022-07-04T11:12:09;90305.00;;;30.87;44.26
17821;BME280;9035;42.554;23.188;2022-07-04T11:14:38;90301.31;;;30.93;44.12
17821;BME280;9035;42.554;23.188;2022-07-04T11:17:05;90294.47;;;31.13;42.33
17821;BME280;9035;42.554;23.188;2022-07-04T11:19:32;90302.56;;;31.22;39.13
17821;BME280;9035;42.554;23.188;2022-07-04T11:22:01;90303.31;;;31.23;39.12
17821;BME280;9035;42.554;23.188;2022-07-04T11:24:28;90302.09;;;31.45;38.21
17821;BME280;9035;42.554;23.188;2022-07-04T11:26:55;90291.59;;;31.69;38.67
17821;BME280;9035;42.554;23.188;2022-07-04T11:29:22;90298.50;;;31.79;39.95
17821;BME280;9035;42.554;23.188;2022-07-04T11:31:51;90297.00;;;31.78;39.38
17821;BME280;9035;42.554;23.188;2022-07-04T11:34:18;90297.63;;;31.82;39.54
17821;BME280;9035;42.554;23.188;2022-07-04T11:36:47;90301.16;;;32.09;36.60
17821;BME280;9035;42.554;23.188;2022-07-04T11:39:16;90296.41;;;32.13;36.59
17821;BME280;9035;42.554;23.188;2022-07-04T11:41:46;90286.34;;;31.95;37.10
17821;BME280;9035;42.554;23.188;2022-07-04T11:44:33;90287.53;;;31.94;37.77
17821;BME280;9035;42.554;23.188;2022-07-04T11:47:18;90284.22;;;31.82;38.34
17821;BME280;9035;42.554;23.188;2022-07-04T11:49:48;90277.81;;;31.49;37.45
17821;BME280;9035;42.554;23.188;2022-07-04T11:52:17;90279.31;;;30.98;38.41
17821;BME280;9035;42.554;23.188;2022-07-04T11:54:46;90280.16;;;30.95;38.32
17821;BME280;9035;42.554;23.188;2022-07-04T11:57:16;90275.00;;;30.79;38.66
17821;BME280;9035;42.554;23.188;2022-07-04T11:59:51;90273.94;;;30.77;41.22
17821;BME280;9035;42.554;23.188;2022-07-04T12:02:18;90273.28;;;30.64;41.79
17821;BME280;9035;42.554;23.188;2022-07-04T12:04:45;90260.06;;;30.48;38.11
17821;BME280;9035;42.554;23.188;2022-07-04T12:07:14;90258.31;;;30.54;37.72
17821;BME280;9035;42.554;23.188;2022-07-04T12:09:42;90257.75;;;30.80;39.96
17821;BME280;9035;42.554;23.188;2022-07-04T12:12:10;90250.81;;;30.92;44.51
17821;BME280;9035;42.554;23.188;2022-07-04T12:14:38;90250.63;;;31.38;44.30
17821;BME280;9035;42.554;23.188;2022-07-04T12:17:15;90245.44;;;31.74;38.57
17821;BME280;9035;42.554;23.188;2022-07-04T12:19:50;90235.47;;;31.92;41.02
17821;BME280;9035;42.554;23.188;2022-07-04T12:22:28;90250.06;;;31.82;35.25
17821;BME280;9035;42.554;23.188;2022-07-04T12:24:56;90246.97;;;31.83;35.76
17821;BME280;9035;42.554;23.188;2022-07-04T12:27:25;90241.06;;;32.15;35.86
17821;BME280;9035;42.554;23.188;2022-07-04T12:29:53;90237.19;;;32.34;36.84
17821;BME280;9035;42.554;23.188;2022-07-04T12:32:20;90225.44;;;32.59;37.26
17821;BME280;9035;42.554;23.188;2022-07-04T12:34:47;90227.78;;;32.57;37.29
17821;BME280;9035;42.554;23.188;2022-07-04T12:37:16;90234.22;;;32.77;38.47
17821;BME280;9035;42.554;23.188;2022-07-04T12:39:44;90231.19;;;32.93;38.60
17821;BME280;9035;42.554;23.188;2022-07-04T12:42:13;90232.97;;;33.05;38.46
17821;BME280;9035;42.554;23.188;2022-07-04T12:44:42;90232.78;;;33.26;36.58
17821;BME280;9035;42.554;23.188;2022-07-04T12:47:11;90223.94;;;33.35;35.25
17821;BME280;9035;42.554;23.188;2022-07-04T12:49:42;90218.75;;;33.22;36.54
17821;BME280;9035;42.554;23.188;2022-07-04T12:52:12;90213.56;;;33.10;38.91
17821;BME280;9035;42.554;23.188;2022-07-04T12:54:39;90225.50;;;33.09;40.35
17821;BME280;9035;42.554;23.188;2022-07-04T12:57:11;90228.97;;;32.91;38.81
17821;BME280;9035;42.554;23.188;2022-07-04T12:59:39;90226.47;;;32.70;38.32
17821;BME280;9035;42.554;23.188;2022-07-04T13:02:08;90227.94;;;32.44;39.90
17821;BME280;9035;42.554;23.188;2022-07-04T13:04:35;90223.31;;;32.27;37.68
17821;BME280;9035;42.554;23.188;2022-07-04T13:07:13;90221.19;;;32.04;40.07